sensor_id;sensor_type;location;lat;lon;timestamp;P1;durP1;ratioP1;P2;durP2;ratioP2
61739;SDS011;47645;45.288;12.038;2022-10-31T00:02:23;25.7;;;20.1;;
61739;SDS011;47645;45.288;12.038;2022-10-31T00:12:24;25.9;;;19.1;;
61739;SDS011;47645;45.288;12.038;2022-10-31T00:22:25;27.0;;;19.2;;
61739;SDS011;47645;45.288;12.038;2022-10-31T00:32:28;25.7;;;19.0;;
61739;SDS011;47645;45.288;12.038;2022-10-31T00:42:26;24.9;;;18.0;;
61739;SDS011;47645;45.288;12.038;2022-10-31T00:52:27;22.7;;;17.3;;
61739;SDS011;47645;45.288;12.038;2022-10-31T01:02:29;25.2;;;17.6;;
61739;SDS011;47645;45.288;12.038;2022-10-31T01:12:29;25.4;;;18.2;;
61739;SDS011;47645;45.288;12.038;2022-10-31T01:22:30;22.4;;;17.0;;
61739;SDS011;47645;45.288;12.038;2022-10-31T01:32:30;24.3;;;18.2;;
61739;SDS011;47645;45.288;12.038;2022-10-31T01:42:31;25.5;;;17.7;;
61739;SDS011;47645;45.288;12.038;2022-10-31T01:52:33;21.2;;;15.5;;
61739;SDS011;47645;45.288;12.038;2022-10-31T02:02:34;22.5;;;16.0;;
61739;SDS011;47645;45.288;12.038;2022-10-31T02:12:34;22.3;;;15.2;;
61739;SDS011;47645;45.288;12.038;2022-10-31T02:22:37;19.3;;;14.3;;
61739;SDS011;47645;45.288;12.038;2022-10-31T02:32:43;20.9;;;15.3;;
61739;SDS011;47645;45.288;12.038;2022-10-31T02:42:38;17.4;;;13.8;;
61739;SDS011;47645;45.288;12.038;2022-10-31T02:52:37;18.0;;;13.7;;
61739;SDS011;47645;45.288;12.038;2022-10-31T03:02:55;21.0;;;14.3;;
61739;SDS011;47645;45.288;12.038;2022-10-31T03:12:39;19.3;;;14.7;;
61739;SDS011;47645;45.288;12.038;2022-10-31T03:22:39;17.7;;;13.4;;
61739;SDS011;47645;45.288;12.038;2022-10-31T03:32:40;18.4;;;13.4;;
61739;SDS011;47645;45.288;12.038;2022-10-31T03:42:41;18.0;;;13.2;;
61739;SDS011;47645;45.288;12.038;2022-10-31T03:52:42;15.5;;;12.0;;
61739;SDS011;47645;45.288;12.038;2022-10-31T04:02:42;15.3;;;11.5;;
61739;SDS011;47645;45.288;12.038;2022-10-31T04:12:43;16.4;;;12.2;;
61739;SDS011;47645;45.288;12.038;2022-10-31T04:22:43;15.5;;;12.0;;
61739;SDS011;47645;45.288;12.038;2022-10-31T04:32:44;16.5;;;11.8;;
61739;SDS011;47645;45.288;12.038;2022-10-31T04:42:45;14.1;;;10.9;;
61739;SDS011;47645;45.288;12.038;2022-10-31T04:52:46;14.9;;;10.1;;
61739;SDS011;47645;45.288;12.038;2022-10-31T05:02:47;13.9;;;10.6;;
61739;SDS011;47645;45.288;12.038;2022-10-31T05:12:48;13.8;;;10.4;;
61739;SDS011;47645;45.288;12.038;2022-10-31T05:22:49;15.1;;;10.8;;
61739;SDS011;47645;45.288;12.038;2022-10-31T05:32:49;13.4;;;9.8;;
61739;SDS011;47645;45.288;12.038;2022-10-31T05:42:50;13.3;;;9.8;;
61739;SDS011;47645;45.288;12.038;2022-10-31T05:52:54;12.1;;;9.2;;
61739;SDS011;47645;45.288;12.038;2022-10-31T06:02:57;12.1;;;9.6;;
61739;SDS011;47645;45.288;12.038;2022-10-31T06:12:52;11.8;;;8.7;;
61739;SDS011;47645;45.288;12.038;2022-10-31T06:22:53;11.8;;;8.7;;
61739;SDS011;47645;45.288;12.038;2022-10-31T06:32:53;12.2;;;9.4;;
61739;SDS011;47645;45.288;12.038;2022-10-31T06:42:56;17.1;;;12.4;;
61739;SDS011;47645;45.288;12.038;2022-10-31T06:52:56;17.8;;;12.1;;
61739;SDS011;47645;45.288;12.038;2022-10-31T07:02:56;21.8;;;15.1;;
61739;SDS011;47645;45.288;12.038;2022-10-31T07:12:57;23.2;;;16.3;;
61739;SDS011;47645;45.288;12.038;2022-10-31T07:22:57;31.7;;;19.3;;
61739;SDS011;47645;45.288;12.038;2022-10-31T07:32:59;27.0;;;19.4;;
61739;SDS011;47645;45.288;12.038;2022-10-31T07:43:00;31.4;;;22.0;;
61739;SDS011;47645;45.288;12.038;2022-10-31T07:53:02;35.8;;;24.7;;
61739;SDS011;47645;45.288;12.038;2022-10-31T08:03:02;54.5;;;33.7;;
61739;SDS011;47645;45.288;12.038;2022-10-31T08:13:02;56.3;;;37.5;;
61739;SDS011;47645;45.288;12.038;2022-10-31T08:23:06;62.7;;;40.6;;
61739;SDS011;47645;45.288;12.038;2022-10-31T08:33:03;61.4;;;40.9;;
61739;SDS011;47645;45.288;12.038;2022-10-31T08:43:05;70.6;;;45.1;;
61739;SDS011;47645;45.288;12.038;2022-10-31T08:53:04;69.5;;;42.8;;
61739;SDS011;47645;45.288;12.038;2022-10-31T09:03:06;61.7;;;38.9;;
61739;SDS011;47645;45.288;12.038;2022-10-31T09:13:08;56.4;;;35.0;;
61739;SDS011;47645;45.288;12.038;2022-10-31T09:23:08;55.7;;;36.1;;
61739;SDS011;47645;45.288;12.038;2022-10-31T09:33:09;49.7;;;33.1;;
61739;SDS011;47645;45.288;12.038;2022-10-31T09:43:12;54.1;;;32.8;;
61739;SDS011;47645;45.288;12.038;2022-10-31T09:53:12;49.5;;;32.8;;
61739;SDS011;47645;45.288;12.038;2022-10-31T10:03:11;50.1;;;31.6;;
61739;SDS011;47645;45.288;12.038;2022-10-31T10:13:15;56.9;;;33.0;;
61739;SDS011;47645;45.288;12.038;2022-10-31T10:23:19;51.6;;;31.3;;
61739;SDS011;47645;45.288;12.038;2022-10-31T10:33:15;49.6;;;32.6;;
61739;SDS011;47645;45.288;12.038;2022-10-31T10:43:26;52.0;;;34.0;;
61739;SDS011;47645;45.288;12.038;2022-10-31T10:53:25;48.7;;;32.4;;
61739;SDS011;47645;45.288;12.038;2022-10-31T11:03:17;51.9;;;33.5;;
61739;SDS011;47645;45.288;12.038;2022-10-31T11:13:22;55.7;;;34.6;;
61739;SDS011;47645;45.288;12.038;2022-10-31T11:23:21;51.8;;;34.1;;
61739;SDS011;47645;45.288;12.038;2022-10-31T11:33:22;50.9;;;33.6;;
61739;SDS011;47645;45.288;12.038;2022-10-31T11:43:22;52.5;;;33.4;;
61739;SDS011;47645;45.288;12.038;2022-10-31T11:53:26;55.9;;;35.2;;
61739;SDS011;47645;45.288;12.038;2022-10-31T12:03:29;59.0;;;35.4;;
61739;SDS011;47645;45.288;12.038;2022-10-31T12:13:32;28.6;;;19.4;;
61739;SDS011;47645;45.288;12.038;2022-10-31T12:23:31;37.1;;;23.3;;
61739;SDS011;47645;45.288;12.038;2022-10-31T12:33:34;49.7;;;30.9;;
61739;SDS011;47645;45.288;12.038;2022-10-31T12:43:35;42.8;;;25.5;;
61739;SDS011;47645;45.288;12.038;2022-10-31T12:53:37;49.1;;;27.9;;
61739;SDS011;47645;45.288;12.038;2022-10-31T13:03:38;37.6;;;21.4;;
61739;SDS011;47645;45.288;12.038;2022-10-31T13:13:37;35.3;;;20.4;;
61739;SDS011;47645;45.288;12.038;2022-10-31T13:23:36;35.9;;;19.9;;
61739;SDS011;47645;45.288;12.038;2022-10-31T13:33:37;35.5;;;17.8;;
61739;SDS011;47645;45.288;12.038;2022-10-31T13:43:41;30.8;;;17.0;;
61739;SDS011;47645;45.288;12.038;2022-10-31T13:53:42;27.5;;;14.7;;
61739;SDS011;47645;45.288;12.038;2022-10-31T14:03:42;39.3;;;23.2;;
61739;SDS011;47645;45.288;12.038;2022-10-31T14:13:43;36.6;;;19.8;;
61739;SDS011;47645;45.288;12.038;2022-10-31T14:23:45;41.6;;;24.5;;
61739;SDS011;47645;45.288;12.038;2022-10-31T14:33:45;39.8;;;20.9;;
61739;SDS011;47645;45.288;12.038;2022-10-31T14:43:50;38.2;;;23.8;;
61739;SDS011;47645;45.288;12.038;2022-10-31T14:53:48;45.8;;;28.4;;
61739;SDS011;47645;45.288;12.038;2022-10-31T15:03:49;52.5;;;32.0;;
61739;SDS011;47645;45.288;12.038;2022-10-31T15:13:50;48.4;;;29.9;;
61739;SDS011;47645;45.288;12.038;2022-10-31T15:23:51;48.9;;;29.0;;
61739;SDS011;47645;45.288;12.038;2022-10-31T15:33:52;44.7;;;27.6;;
61739;SDS011;47645;45.288;12.038;2022-10-31T15:43:53;37.2;;;25.7;;
61739;SDS011;47645;45.288;12.038;2022-10-31T15:53:54;38.8;;;24.7;;
61739;SDS011;47645;45.288;12.038;2022-10-31T16:03:58;37.5;;;22.9;;
61739;SDS011;47645;45.288;12.038;2022-10-31T16:13:58;34.8;;;22.1;;
61739;SDS011;47645;45.288;12.038;2022-10-31T16:23:59;34.7;;;21.6;;
61739;SDS011;47645;45.288;12.038;2022-10-31T16:34:01;27.5;;;18.1;;
61739;SDS011;47645;45.288;12.038;2022-10-31T16:44:00;35.4;;;22.4;;
61739;SDS011;47645;45.288;12.038;2022-10-31T16:54:01;30.4;;;19.3;;
61739;SDS011;47645;45.288;12.038;2022-10-31T17:04:02;29.5;;;19.9;;
61739;SDS011;47645;45.288;12.038;2022-10-31T17:14:03;27.2;;;17.3;;
61739;SDS011;47645;45.288;12.038;2022-10-31T17:24:04;27.8;;;18.3;;
61739;SDS011;47645;45.288;12.038;2022-10-31T17:34:06;28.9;;;19.1;;
61739;SDS011;47645;45.288;12.038;2022-10-31T17:44:08;26.1;;;18.3;;
61739;SDS011;47645;45.288;12.038;2022-10-31T17:54:08;34.6;;;20.5;;
61739;SDS011;47645;45.288;12.038;2022-10-31T18:04:08;36.0;;;22.5;;
61739;SDS011;47645;45.288;12.038;2022-10-31T18:14:12;32.7;;;19.6;;
61739;SDS011;47645;45.288;12.038;2022-10-31T18:24:12;26.4;;;18.0;;
61739;SDS011;47645;45.288;12.038;2022-10-31T18:34:13;35.0;;;21.4;;
61739;SDS011;47645;45.288;12.038;2022-10-31T18:44:12;29.4;;;19.2;;
61739;SDS011;47645;45.288;12.038;2022-10-31T18:54:13;29.7;;;20.0;;
61739;SDS011;47645;45.288;12.038;2022-10-31T19:04:14;27.4;;;17.6;;
61739;SDS011;47645;45.288;12.038;2022-10-31T19:14:14;35.2;;;21.2;;
61739;SDS011;47645;45.288;12.038;2022-10-31T19:24:15;32.3;;;20.4;;
61739;SDS011;47645;45.288;12.038;2022-10-31T19:34:17;27.0;;;18.7;;
61739;SDS011;47645;45.288;12.038;2022-10-31T19:44:17;29.3;;;18.1;;
61739;SDS011;47645;45.288;12.038;2022-10-31T19:54:18;34.5;;;21.7;;
61739;SDS011;47645;45.288;12.038;2022-10-31T20:04:19;30.2;;;19.9;;
61739;SDS011;47645;45.288;12.038;2022-10-31T20:14:20;39.0;;;25.3;;
61739;SDS011;47645;45.288;12.038;2022-10-31T20:24:21;32.6;;;21.1;;
61739;SDS011;47645;45.288;12.038;2022-10-31T20:34:22;34.5;;;20.6;;
61739;SDS011;47645;45.288;12.038;2022-10-31T20:44:23;47.6;;;30.4;;
61739;SDS011;47645;45.288;12.038;2022-10-31T20:54:24;34.8;;;20.7;;
61739;SDS011;47645;45.288;12.038;2022-10-31T21:04:27;60.4;;;39.8;;
61739;SDS011;47645;45.288;12.038;2022-10-31T21:14:25;30.9;;;21.2;;
61739;SDS011;47645;45.288;12.038;2022-10-31T21:24:28;31.2;;;20.6;;
61739;SDS011;47645;45.288;12.038;2022-10-31T21:34:27;41.2;;;25.4;;
61739;SDS011;47645;45.288;12.038;2022-10-31T21:44:29;42.6;;;27.2;;
61739;SDS011;47645;45.288;12.038;2022-10-31T21:54:32;27.5;;;18.7;;
61739;SDS011;47645;45.288;12.038;2022-10-31T22:04:31;32.8;;;20.5;;
61739;SDS011;47645;45.288;12.038;2022-10-31T22:14:31;28.8;;;19.7;;
61739;SDS011;47645;45.288;12.038;2022-10-31T22:24:32;40.2;;;25.3;;
61739;SDS011;47645;45.288;12.038;2022-10-31T22:34:33;30.3;;;19.5;;
61739;SDS011;47645;45.288;12.038;2022-10-31T22:44:33;28.3;;;18.0;;
61739;SDS011;47645;45.288;12.038;2022-10-31T22:54:34;29.6;;;18.8;;
61739;SDS011;47645;45.288;12.038;2022-10-31T23:04:36;25.7;;;18.5;;
61739;SDS011;47645;45.288;12.038;2022-10-31T23:14:36;26.8;;;19.2;;
61739;SDS011;47645;45.288;12.038;2022-10-31T23:24:38;26.7;;;18.9;;
61739;SDS011;47645;45.288;12.038;2022-10-31T23:34:38;31.5;;;23.1;;
61739;SDS011;47645;45.288;12.038;2022-10-31T23:44:39;27.7;;;20.2;;
61739;SDS011;47645;45.288;12.038;2022-10-31T23:54:39;27.4;;;18.4;;
